createdAt,value
2017-08-19T00:01:55.047Z,64.00
2017-08-19T00:04:22.500Z,63.90
2017-08-19T00:06:49.978Z,64.10
2017-08-19T00:09:17.428Z,64.00
2017-08-19T00:11:44.905Z,64.00
2017-08-19T00:14:12.376Z,64.00
2017-08-19T00:16:40.617Z,64.30
2017-08-19T00:19:08.072Z,64.20
2017-08-19T00:21:35.558Z,64.30
2017-08-19T00:24:03.014Z,64.50
2017-08-19T00:26:31.270Z,64.50
2017-08-19T00:28:58.723Z,64.50
2017-08-19T00:31:26.203Z,64.60
2017-08-19T00:33:53.682Z,64.60
2017-08-19T00:36:21.903Z,64.70
2017-08-19T00:38:49.381Z,64.70
2017-08-19T00:41:16.834Z,64.70
2017-08-19T00:43:44.282Z,64.70
2017-08-19T00:46:11.763Z,64.70
2017-08-19T00:48:39.241Z,64.60
2017-08-19T00:51:07.613Z,64.50
2017-08-19T00:53:35.098Z,64.50
2017-08-19T00:56:02.554Z,64.60
2017-08-19T00:58:30.022Z,64.60
2017-08-19T01:00:57.510Z,64.50
2017-08-19T01:03:24.973Z,64.50
2017-08-19T01:05:52.438Z,64.40
2017-08-19T01:08:19.915Z,64.40
2017-08-19T01:10:47.374Z,64.30
2017-08-19T01:13:14.838Z,64.40
2017-08-19T01:15:43.089Z,64.40
2017-08-19T01:18:10.550Z,64.30
2017-08-19T01:20:37.996Z,64.40
2017-08-19T01:23:05.470Z,64.40
2017-08-19T01:25:44.857Z,64.40
2017-08-19T01:28:12.319Z,64.50
2017-08-19T01:30:39.802Z,64.40
2017-08-19T01:33:07.261Z,64.40
2017-08-19T01:35:34.717Z,64.50
2017-08-19T01:38:02.214Z,64.50
2017-08-19T01:40:29.663Z,64.20
2017-08-19T01:42:57.122Z,64.40
2017-08-19T01:45:24.603Z,64.40
2017-08-19T01:47:52.054Z,64.40
2017-08-19T01:50:19.533Z,64.50
2017-08-19T01:52:46.991Z,64.50
2017-08-19T01:55:14.510Z,64.50
2017-08-19T01:57:41.965Z,64.60
2017-08-19T02:00:09.426Z,64.60
2017-08-19T02:02:36.902Z,64.60
2017-08-19T02:05:04.386Z,64.70
2017-08-19T02:07:31.847Z,64.70
2017-08-19T02:09:59.327Z,64.70
2017-08-19T02:12:26.777Z,64.70
2017-08-19T02:14:54.252Z,64.50
2017-08-19T02:17:21.714Z,64.50
2017-08-19T02:19:49.190Z,64.60
2017-08-19T02:22:16.644Z,64.70
2017-08-19T02:24:44.097Z,64.60
2017-08-19T02:27:11.581Z,64.70
2017-08-19T02:29:39.070Z,64.70
2017-08-19T02:32:06.530Z,64.80
2017-08-19T02:34:34.003Z,64.70
2017-08-19T02:37:01.491Z,64.70
2017-08-19T02:39:28.945Z,64.80
2017-08-19T02:41:56.397Z,64.80
2017-08-19T02:44:23.890Z,64.80
2017-08-19T02:46:51.341Z,64.90
2017-08-19T02:49:18.792Z,64.90
2017-08-19T02:51:46.281Z,65.00
2017-08-19T02:54:13.743Z,65.20
2017-08-19T02:56:41.226Z,65.30
2017-08-19T02:59:08.688Z,65.40
2017-08-19T03:01:36.150Z,65.40
2017-08-19T03:04:03.633Z,65.40
2017-08-19T03:06:31.094Z,65.50
2017-08-19T03:08:58.549Z,65.60
2017-08-19T03:11:26.025Z,65.70
2017-08-19T03:13:53.487Z,65.70
2017-08-19T03:16:21.735Z,65.30
2017-08-19T03:18:49.186Z,65.80
2017-08-19T03:21:16.642Z,66.00
2017-08-19T03:23:44.114Z,66.00
2017-08-19T03:26:11.579Z,66.20
2017-08-19T03:28:41.011Z,66.30
2017-08-19T03:31:08.749Z,66.30
2017-08-19T03:33:36.210Z,66.40
2017-08-19T03:36:03.695Z,66.40
2017-08-19T03:38:31.944Z,66.40
2017-08-19T03:40:59.389Z,66.40
2017-08-19T03:43:26.929Z,66.40
2017-08-19T03:45:54.395Z,66.30
2017-08-19T03:48:21.889Z,66.30
2017-08-19T03:50:49.382Z,66.20
2017-08-19T03:53:16.837Z,66.20
2017-08-19T03:55:44.314Z,66.10
2017-08-19T03:58:11.805Z,66.00
2017-08-19T04:00:39.334Z,66.00
2017-08-19T04:03:06.806Z,66.00
2017-08-19T04:05:34.278Z,66.00
2017-08-19T04:08:01.743Z,66.00
2017-08-19T04:10:29.203Z,66.00
2017-08-19T04:12:56.706Z,65.90
2017-08-19T04:15:24.157Z,65.90
2017-08-19T04:17:51.614Z,65.80
2017-08-19T04:20:19.089Z,65.90
2017-08-19T04:22:46.553Z,65.90
2017-08-19T04:25:14.077Z,65.90
2017-08-19T04:27:42.295Z,66.10
2017-08-19T04:30:09.751Z,66.00
2017-08-19T04:32:37.237Z,66.10
2017-08-19T04:35:04.694Z,66.00
2017-08-19T04:37:32.177Z,66.30
2017-08-19T04:39:59.639Z,66.20
2017-08-19T04:42:27.863Z,65.90
2017-08-19T04:44:55.334Z,65.90
2017-08-19T04:47:22.791Z,65.80
2017-08-19T04:49:50.273Z,65.70
2017-08-19T04:52:17.729Z,65.60
2017-08-19T04:54:45.177Z,65.60
2017-08-19T04:57:12.661Z,65.50
2017-08-19T04:59:40.897Z,65.50
2017-08-19T05:02:08.369Z,65.50
2017-08-19T05:04:35.846Z,65.20
2017-08-19T05:07:03.411Z,65.30
2017-08-19T05:09:30.885Z,65.30
2017-08-19T05:11:58.381Z,65.20
2017-08-19T05:14:25.829Z,65.40
2017-08-19T05:16:53.292Z,65.20
2017-08-19T05:19:20.762Z,65.00
2017-08-19T05:21:48.218Z,64.90
2017-08-19T05:24:15.744Z,64.80
2017-08-19T05:26:43.967Z,64.70
2017-08-19T05:29:11.413Z,64.70
2017-08-19T05:31:38.913Z,64.50
2017-08-19T05:34:06.415Z,64.40
2017-08-19T05:36:33.862Z,64.30
2017-08-19T05:39:01.323Z,64.40
2017-08-19T05:41:28.809Z,64.40
2017-08-19T05:43:56.269Z,64.40
2017-08-19T05:46:23.760Z,64.30
2017-08-19T05:48:51.222Z,64.20
2017-08-19T05:51:18.686Z,64.10
2017-08-19T05:53:46.168Z,63.90
2017-08-19T05:56:13.654Z,63.90
2017-08-19T05:58:41.129Z,63.90
2017-08-19T06:01:08.602Z,63.80
2017-08-19T06:03:36.089Z,63.80
2017-08-19T06:06:03.582Z,63.60
2017-08-19T06:08:31.041Z,63.60
2017-08-19T06:10:58.500Z,63.50
2017-08-19T06:13:25.977Z,63.50
2017-08-19T06:15:53.430Z,63.40
2017-08-19T06:18:20.926Z,63.30
2017-08-19T06:20:48.428Z,63.10
2017-08-19T06:23:15.885Z,63.10
2017-08-19T06:25:43.345Z,63.30
2017-08-19T06:28:10.839Z,63.30
2017-08-19T06:30:38.290Z,63.40
2017-08-19T06:33:05.778Z,63.30
2017-08-19T06:35:34.026Z,63.40
2017-08-19T06:38:01.511Z,63.30
2017-08-19T06:40:29.045Z,63.30
2017-08-19T06:42:56.536Z,63.20
2017-08-19T06:45:24.017Z,62.90
2017-08-19T06:47:51.514Z,62.60
2017-08-19T06:50:19.014Z,62.70
2017-08-19T06:52:46.473Z,62.50
2017-08-19T06:55:13.938Z,62.30
2017-08-19T06:57:41.417Z,62.30
2017-08-19T07:00:08.894Z,62.10
2017-08-19T07:02:36.351Z,61.80
2017-08-19T07:05:03.834Z,61.40
2017-08-19T07:07:31.290Z,61.40
2017-08-19T07:09:58.765Z,61.30
2017-08-19T07:12:26.988Z,60.70
2017-08-19T07:14:54.478Z,60.70
2017-08-19T07:17:21.937Z,60.70
2017-08-19T07:19:49.433Z,60.60
2017-08-19T07:22:16.892Z,60.70
2017-08-19T07:24:44.351Z,60.50
2017-08-19T07:27:11.834Z,60.30
2017-08-19T07:29:39.282Z,59.90
2017-08-19T07:32:06.739Z,59.90
2017-08-19T07:34:34.227Z,60.00
2017-08-19T07:37:02.319Z,59.80
2017-08-19T07:39:30.710Z,59.70
2017-08-19T07:41:59.567Z,59.80
2017-08-19T07:44:27.116Z,59.90
2017-08-19T07:46:55.042Z,60.60
2017-08-19T07:49:22.591Z,59.40
2017-08-19T07:51:50.864Z,59.40
2017-08-19T07:54:18.477Z,59.70
2017-08-19T07:56:46.180Z,59.70
2017-08-19T07:59:13.630Z,59.70
2017-08-19T08:01:41.749Z,59.90
2017-08-19T08:04:11.306Z,59.90
2017-08-19T08:06:46.412Z,60.10
2017-08-19T08:09:15.960Z,60.00
2017-08-19T08:11:43.426Z,59.60
2017-08-19T08:14:10.932Z,59.50
2017-08-19T08:16:38.426Z,59.10
2017-08-19T08:19:06.026Z,59.00
2017-08-19T08:21:34.140Z,58.60
2017-08-19T08:24:01.638Z,58.50
2017-08-19T08:26:29.130Z,58.50
2017-08-19T08:28:56.635Z,58.20
2017-08-19T08:31:24.094Z,57.30
2017-08-19T08:33:51.577Z,57.20
2017-08-19T08:36:19.093Z,57.10
2017-08-19T08:38:46.633Z,57.10
2017-08-19T08:41:14.105Z,57.10
2017-08-19T08:43:41.590Z,57.10
2017-08-19T08:46:09.166Z,57.00
2017-08-19T08:48:36.638Z,57.00
2017-08-19T08:51:04.218Z,57.10
2017-08-19T08:53:31.904Z,57.30
2017-08-19T08:55:59.454Z,56.80
2017-08-19T08:58:26.929Z,56.60
2017-08-19T09:00:54.893Z,56.60
2017-08-19T09:03:22.987Z,56.70
2017-08-19T09:05:50.895Z,56.70
2017-08-19T09:08:18.441Z,56.80
2017-08-19T09:10:46.081Z,57.10
2017-08-19T09:13:14.226Z,57.10
2017-08-19T09:15:41.995Z,56.90
2017-08-19T09:18:09.713Z,56.80
2017-08-19T09:20:37.360Z,56.70
2017-08-19T09:23:05.113Z,56.50
2017-08-19T09:25:32.693Z,56.30
2017-08-19T09:28:00.177Z,56.80
2017-08-19T09:30:29.073Z,56.40
2017-08-19T09:32:57.868Z,56.50
2017-08-19T09:35:25.398Z,56.50
2017-08-19T09:37:53.233Z,56.50
2017-08-19T09:40:20.776Z,56.70
2017-08-19T09:42:48.622Z,57.20
2017-08-19T09:45:16.530Z,57.70
2017-08-19T09:47:44.196Z,58.20
2017-08-19T09:50:12.048Z,58.70
2017-08-19T09:52:39.657Z,59.10
2017-08-19T09:55:08.155Z,59.30
2017-08-19T09:57:37.350Z,59.30
2017-08-19T10:00:05.133Z,59.30
2017-08-19T10:02:32.791Z,58.90
2017-08-19T10:05:00.814Z,58.90
2017-08-19T10:07:29.198Z,58.00
2017-08-19T10:09:56.751Z,57.50
2017-08-19T10:12:24.940Z,57.80
2017-08-19T10:14:52.535Z,56.60
2017-08-19T10:17:20.085Z,55.70
2017-08-19T10:19:48.512Z,55.10
2017-08-19T10:22:16.130Z,55.30
2017-08-19T10:24:44.210Z,55.30
2017-08-19T10:27:12.493Z,55.50
2017-08-19T10:29:41.547Z,55.50
2017-08-19T10:32:09.129Z,55.10
2017-08-19T10:34:36.612Z,55.00
2017-08-19T10:37:04.888Z,55.00
2017-08-19T10:39:33.188Z,55.20
2017-08-19T10:42:01.618Z,55.30
2017-08-19T10:44:29.832Z,55.30
2017-08-19T10:46:57.931Z,55.60
2017-08-19T10:49:25.551Z,55.80
2017-08-19T10:51:53.543Z,55.30
2017-08-19T10:54:22.306Z,54.90
2017-08-19T10:56:49.938Z,54.70
2017-08-19T10:59:18.241Z,54.50
2017-08-19T11:01:46.534Z,54.90
2017-08-19T11:04:14.072Z,54.90
2017-08-19T11:06:41.672Z,55.30
2017-08-19T11:09:09.285Z,55.50
2017-08-19T11:11:37.601Z,55.10
2017-08-19T11:14:05.104Z,55.10
2017-08-19T11:16:32.640Z,55.30
2017-08-19T11:19:00.102Z,55.00
2017-08-19T11:21:27.555Z,54.50
2017-08-19T11:23:55.037Z,52.70
2017-08-19T11:26:23.289Z,51.70
2017-08-19T11:28:50.761Z,51.70
2017-08-19T11:31:18.214Z,51.80
2017-08-19T11:33:45.696Z,52.40
2017-08-19T11:36:13.684Z,52.20
2017-08-19T11:38:41.255Z,52.20
2017-08-19T11:41:09.465Z,50.90
2017-08-19T11:43:36.950Z,50.80
2017-08-19T11:46:04.421Z,50.00
2017-08-19T11:48:32.307Z,48.70
2017-08-19T11:50:59.913Z,47.60
2017-08-19T11:53:27.369Z,47.00
2017-08-19T11:55:54.817Z,47.00
2017-08-19T11:58:22.318Z,47.40
2017-08-19T12:00:49.862Z,47.50
2017-08-19T12:03:17.601Z,47.50
2017-08-19T12:05:45.221Z,47.50
2017-08-19T12:08:12.828Z,49.30
2017-08-19T12:10:40.381Z,51.00
2017-08-19T12:13:08.034Z,52.30
2017-08-19T12:15:35.663Z,53.20
2017-08-19T12:18:03.128Z,53.70
2017-08-19T12:20:31.445Z,53.70
2017-08-19T12:22:58.911Z,53.70
2017-08-19T12:25:26.393Z,53.70
2017-08-19T12:27:54.741Z,53.40
2017-08-19T12:30:23.453Z,51.80
2017-08-19T12:32:51.036Z,51.60
2017-08-19T12:35:18.901Z,51.10
2017-08-19T12:37:46.457Z,50.90
2017-08-19T12:40:14.198Z,50.60
2017-08-19T12:42:41.694Z,50.00
2017-08-19T12:45:09.157Z,49.90
2017-08-19T12:47:37.169Z,50.10
2017-08-19T12:50:04.744Z,49.60
2017-08-19T12:52:32.622Z,49.40
2017-08-19T12:55:00.183Z,49.60
2017-08-19T12:57:28.090Z,49.90
2017-08-19T12:59:56.440Z,50.10
2017-08-19T13:02:24.257Z,50.10
2017-08-19T13:04:51.854Z,49.90
2017-08-19T13:07:19.448Z,49.90
2017-08-19T13:09:49.115Z,49.80
2017-08-19T13:12:16.792Z,49.90
2017-08-19T13:14:44.366Z,49.60
2017-08-19T13:17:12.191Z,49.70
2017-08-19T13:19:40.002Z,49.40
2017-08-19T13:22:07.593Z,49.30
2017-08-19T13:24:35.063Z,48.50
2017-08-19T13:27:02.570Z,48.30
2017-08-19T13:29:30.099Z,47.10
2017-08-19T13:31:57.651Z,46.80
2017-08-19T13:34:25.340Z,46.60
2017-08-19T13:36:52.861Z,46.30
2017-08-19T13:39:20.522Z,46.70
2017-08-19T13:41:48.115Z,46.00
2017-08-19T13:44:15.658Z,45.80
2017-08-19T13:46:43.169Z,45.70
2017-08-19T13:49:10.625Z,44.70
2017-08-19T13:51:38.082Z,44.50
2017-08-19T13:54:05.586Z,44.20
2017-08-19T13:56:33.120Z,43.30
2017-08-19T13:59:00.990Z,41.80
2017-08-19T14:01:29.101Z,39.70
2017-08-19T14:03:56.705Z,39.40
2017-08-19T14:06:24.294Z,40.90
2017-08-19T14:08:52.526Z,40.80
2017-08-19T14:11:20.347Z,40.70
2017-08-19T14:13:47.844Z,39.50
2017-08-19T14:16:16.107Z,39.00
2017-08-19T14:18:43.765Z,36.60
2017-08-19T14:21:11.301Z,33.20
2017-08-19T14:23:38.847Z,32.80
2017-08-19T14:26:06.885Z,31.80
2017-08-19T14:28:35.250Z,30.50
2017-08-19T14:31:02.788Z,28.50
2017-08-19T14:33:30.788Z,27.40
2017-08-19T14:35:58.315Z,25.60
2017-08-19T14:38:25.765Z,25.40
2017-08-19T14:40:53.677Z,25.10
2017-08-19T14:43:21.144Z,24.20
2017-08-19T14:45:48.700Z,23.90
2017-08-19T14:48:16.709Z,24.00
2017-08-19T14:50:44.253Z,24.30
2017-08-19T14:53:12.149Z,25.90
2017-08-19T14:55:39.802Z,26.60
2017-08-19T14:58:07.674Z,26.60
2017-08-19T15:00:35.176Z,27.60
2017-08-19T15:03:02.902Z,29.00
2017-08-19T15:05:30.520Z,30.10
2017-08-19T15:07:57.998Z,32.30
2017-08-19T15:10:26.260Z,35.20
2017-08-19T15:12:54.390Z,35.20
2017-08-19T15:15:22.452Z,33.10
2017-08-19T15:17:50.157Z,29.90
2017-08-19T15:20:17.750Z,27.00
2017-08-19T15:22:45.409Z,25.20
2017-08-19T15:25:12.942Z,25.20
2017-08-19T15:27:40.405Z,26.20
2017-08-19T15:30:07.902Z,26.90
2017-08-19T15:32:35.361Z,27.80
2017-08-19T15:35:02.847Z,29.00
2017-08-19T15:37:31.022Z,29.00
2017-08-19T15:39:59.576Z,28.40
2017-08-19T15:42:27.066Z,27.30
2017-08-19T15:44:54.516Z,25.20
2017-08-19T15:47:21.969Z,24.80
2017-08-19T15:49:49.474Z,24.30
2017-08-19T15:52:16.954Z,24.20
2017-08-19T15:54:44.445Z,24.40
2017-08-19T15:57:11.897Z,25.80
2017-08-19T15:59:39.374Z,26.40
2017-08-19T16:02:06.834Z,27.00
2017-08-19T16:04:34.308Z,26.30
2017-08-19T16:07:01.957Z,25.70
2017-08-19T16:09:30.546Z,26.40
2017-08-19T16:11:58.037Z,26.30
2017-08-19T16:14:25.778Z,25.90
2017-08-19T16:16:53.390Z,24.60
2017-08-19T16:19:22.667Z,26.10
2017-08-19T16:21:50.979Z,26.20
2017-08-19T16:24:18.977Z,27.20
2017-08-19T16:26:47.016Z,27.80
2017-08-19T16:29:14.590Z,29.10
2017-08-19T16:31:42.107Z,30.20
2017-08-19T16:34:10.331Z,31.50
2017-08-19T16:36:37.790Z,31.50
2017-08-19T16:39:05.322Z,31.70
2017-08-19T16:41:33.547Z,33.40
2017-08-19T16:44:01.485Z,33.40
2017-08-19T16:46:28.969Z,34.10
2017-08-19T16:48:57.034Z,34.20
2017-08-19T16:51:25.146Z,34.30
2017-08-19T16:53:53.219Z,34.50
2017-08-19T16:56:21.003Z,34.90
2017-08-19T16:58:48.882Z,34.80
2017-08-19T17:01:16.634Z,34.90
2017-08-19T17:03:44.603Z,35.20
2017-08-19T17:06:12.125Z,35.20
2017-08-19T17:08:39.681Z,35.30
2017-08-19T17:11:07.130Z,35.50
2017-08-19T17:13:34.595Z,35.80
2017-08-19T17:16:02.083Z,36.10
2017-08-19T17:18:29.543Z,36.70
2017-08-19T17:20:57.078Z,37.30
2017-08-19T17:23:24.577Z,37.60
2017-08-19T17:25:52.057Z,37.90
2017-08-19T17:28:19.539Z,37.90
2017-08-19T17:30:46.995Z,38.10
2017-08-19T17:33:14.470Z,38.20
2017-08-19T17:35:41.926Z,38.50
2017-08-19T17:38:09.430Z,38.10
2017-08-19T17:40:36.882Z,37.80
2017-08-19T17:43:04.361Z,36.30
2017-08-19T17:45:32.086Z,34.30
2017-08-19T17:47:59.595Z,33.80
2017-08-19T17:50:27.097Z,34.70
2017-08-19T17:52:54.588Z,35.50
2017-08-19T17:55:22.129Z,36.40
2017-08-19T17:57:50.433Z,37.40
2017-08-19T18:00:17.981Z,38.10
2017-08-19T18:02:45.443Z,38.80
2017-08-19T18:05:12.914Z,39.30
2017-08-19T18:07:40.405Z,39.80
2017-08-19T18:10:07.969Z,40.20
2017-08-19T18:12:35.453Z,40.50
2017-08-19T18:15:03.204Z,40.70
2017-08-19T18:17:31.102Z,40.70
2017-08-19T18:19:58.670Z,41.50
2017-08-19T18:22:26.183Z,41.10
2017-08-19T18:24:53.634Z,41.60
2017-08-19T18:27:21.110Z,41.80
2017-08-19T18:29:48.562Z,42.10
2017-08-19T18:32:16.038Z,42.20
2017-08-19T18:34:43.525Z,42.30
2017-08-19T18:37:10.978Z,42.50
2017-08-19T18:39:38.423Z,42.70
2017-08-19T18:42:05.919Z,42.90
2017-08-19T18:44:33.362Z,43.20
2017-08-19T18:47:00.802Z,43.50
2017-08-19T18:49:29.247Z,44.00
2017-08-19T18:51:56.707Z,44.00
2017-08-19T18:54:24.200Z,44.20
2017-08-19T18:56:52.421Z,44.50
2017-08-19T18:59:19.870Z,44.50
2017-08-19T19:01:47.355Z,44.60
2017-08-19T19:04:14.807Z,44.80
2017-08-19T19:06:42.278Z,45.00
2017-08-19T19:09:09.809Z,45.30
2017-08-19T19:11:37.263Z,45.50
2017-08-19T19:14:04.722Z,45.80
2017-08-19T19:16:32.200Z,45.80
2017-08-19T19:18:59.641Z,45.90
2017-08-19T19:21:27.124Z,46.00
2017-08-19T19:23:54.603Z,46.20
2017-08-19T19:26:22.066Z,46.30
2017-08-19T19:28:49.553Z,46.50
2017-08-19T19:31:17.009Z,46.50
2017-08-19T19:33:44.473Z,46.50
2017-08-19T19:36:11.937Z,46.50
2017-08-19T19:38:39.478Z,46.50
2017-08-19T19:41:06.991Z,46.40
2017-08-19T19:43:34.489Z,46.40
2017-08-19T19:46:02.021Z,46.50
2017-08-19T19:48:29.581Z,46.60
2017-08-19T19:50:57.123Z,46.70
2017-08-19T19:53:24.688Z,46.80
2017-08-19T19:55:52.191Z,47.10
2017-08-19T19:58:19.734Z,47.50
2017-08-19T20:00:47.987Z,47.90
2017-08-19T20:03:15.445Z,47.90
2017-08-19T20:05:42.931Z,47.80
2017-08-19T20:08:10.454Z,47.80
2017-08-19T20:10:37.988Z,47.90
2017-08-19T20:13:05.530Z,48.00
2017-08-19T20:15:32.997Z,48.10
2017-08-19T20:18:00.482Z,48.20
2017-08-19T20:20:28.111Z,48.30
2017-08-19T20:22:55.558Z,48.30
2017-08-19T20:25:23.013Z,48.40
2017-08-19T20:27:51.260Z,48.60
2017-08-19T20:30:18.844Z,48.60
2017-08-19T20:32:46.342Z,48.70
2017-08-19T20:35:13.910Z,48.70
2017-08-19T20:37:41.391Z,48.80
2017-08-19T20:40:08.845Z,48.90
2017-08-19T20:42:36.328Z,48.90
2017-08-19T20:45:03.822Z,49.00
2017-08-19T20:47:31.340Z,49.00
2017-08-19T20:49:58.931Z,49.10
2017-08-19T20:52:26.393Z,49.10
2017-08-19T20:54:54.066Z,49.30
2017-08-19T20:57:21.546Z,49.30
2017-08-19T20:59:49.113Z,49.40
2017-08-19T21:02:16.682Z,49.30
2017-08-19T21:04:44.294Z,49.30
2017-08-19T21:07:11.838Z,49.30
2017-08-19T21:09:40.069Z,49.30
2017-08-19T21:12:07.569Z,49.30
2017-08-19T21:14:35.051Z,49.40
2017-08-19T21:17:02.499Z,49.50
2017-08-19T21:19:30.765Z,49.70
2017-08-19T21:21:58.218Z,49.60
2017-08-19T21:24:25.669Z,49.70
2017-08-19T21:26:53.189Z,49.70
2017-08-19T21:29:20.674Z,49.90
2017-08-19T21:31:48.130Z,50.00
2017-08-19T21:34:15.578Z,50.10
2017-08-19T21:36:43.053Z,50.30
2017-08-19T21:39:10.514Z,50.40
2017-08-19T21:41:37.962Z,50.60
2017-08-19T21:44:05.434Z,50.70
2017-08-19T21:46:32.881Z,50.80
2017-08-19T21:49:00.357Z,51.00
2017-08-19T21:51:27.810Z,51.20
2017-08-19T21:53:55.287Z,51.40
2017-08-19T21:56:22.739Z,51.60
2017-08-19T21:58:50.213Z,51.60
2017-08-19T22:01:17.698Z,51.70
2017-08-19T22:03:45.149Z,51.90
2017-08-19T22:06:12.600Z,51.90
2017-08-19T22:08:40.094Z,52.10
2017-08-19T22:11:07.547Z,52.10
2017-08-19T22:13:34.998Z,52.20
2017-08-19T22:16:02.465Z,52.30
2017-08-19T22:18:29.918Z,52.40
2017-08-19T22:20:57.391Z,52.50
2017-08-19T22:23:24.876Z,52.60
2017-08-19T22:25:52.331Z,52.70
2017-08-19T22:28:19.809Z,52.50
2017-08-19T22:30:47.284Z,52.90
2017-08-19T22:33:14.734Z,53.00
2017-08-19T22:35:42.205Z,53.20
2017-08-19T22:38:09.695Z,53.30
2017-08-19T22:40:37.168Z,53.40
2017-08-19T22:43:04.645Z,53.40
2017-08-19T22:45:32.093Z,53.60
2017-08-19T22:47:59.567Z,53.70
2017-08-19T22:50:27.024Z,53.70
2017-08-19T22:52:54.474Z,53.90
2017-08-19T22:55:21.954Z,53.90
2017-08-19T22:57:49.417Z,54.00
2017-08-19T23:00:16.891Z,54.00
2017-08-19T23:02:44.337Z,54.20
2017-08-19T23:05:11.831Z,54.20
2017-08-19T23:07:39.286Z,54.20
2017-08-19T23:10:06.738Z,54.20
2017-08-19T23:12:34.222Z,54.10
2017-08-19T23:15:01.713Z,54.20
2017-08-19T23:17:29.179Z,54.10
2017-08-19T23:19:56.625Z,54.20
2017-08-19T23:22:24.109Z,54.10
2017-08-19T23:24:51.559Z,54.00
2017-08-19T23:27:19.034Z,53.30
2017-08-19T23:29:46.482Z,53.30
2017-08-19T23:32:13.979Z,53.10
2017-08-19T23:34:41.429Z,53.20
2017-08-19T23:37:08.890Z,53.30
2017-08-19T23:39:36.362Z,53.50
2017-08-19T23:42:03.820Z,53.80
2017-08-19T23:44:31.297Z,53.90
2017-08-19T23:46:59.510Z,54.30
2017-08-19T23:49:27.025Z,54.20
2017-08-19T23:51:55.254Z,54.70
2017-08-19T23:54:22.701Z,54.70
2017-08-19T23:56:50.181Z,54.90
2017-08-19T23:59:17.629Z,55.10
